createdAt,value
2022-12-11T00:03:47.977Z,20.43
2022-12-11T00:08:53.357Z,20.37
2022-12-11T00:13:54.555Z,18.02
2022-12-11T00:18:55.335Z,18.02
2022-12-11T00:23:56.089Z,17.05
2022-12-11T00:28:56.850Z,17.67
2022-12-11T00:33:57.658Z,19.92
2022-12-11T00:38:58.939Z,15.25
2022-12-11T00:43:59.917Z,16.77
2022-12-11T00:49:01.274Z,18.92
2022-12-11T00:54:03.179Z,17.45
2022-12-11T00:59:03.973Z,15.85
2022-12-11T01:04:05.016Z,16.62
2022-12-11T01:09:24.311Z,13.05
2022-12-11T01:14:26.258Z,13.80
2022-12-11T01:19:27.771Z,15.38
2022-12-11T01:24:28.665Z,14.38
2022-12-11T01:29:29.776Z,13.35
2022-12-11T01:34:32.534Z,16.70
2022-12-11T01:39:33.263Z,14.35
2022-12-11T01:46:08.592Z,13.77
2022-12-11T01:51:09.613Z,14.73
2022-12-11T01:56:10.737Z,14.40
2022-12-11T02:01:17.754Z,13.85
2022-12-11T02:06:40.039Z,13.73
2022-12-11T02:13:01.214Z,13.23
2022-12-11T02:21:18.045Z,11.60
2022-12-11T02:28:06.545Z,13.98
2022-12-11T02:33:12.102Z,13.38
2022-12-11T02:38:27.917Z,9.48
2022-12-11T02:43:32.420Z,11.12
2022-12-11T02:48:35.727Z,12.00
2022-12-11T02:53:40.681Z,12.55
2022-12-11T02:58:53.932Z,13.15
2022-12-11T03:03:58.073Z,13.57
2022-12-11T03:08:58.957Z,14.60
2022-12-11T03:14:02.119Z,14.20
2022-12-11T03:25:21.341Z,14.77
2022-12-11T03:30:24.166Z,15.30
2022-12-11T03:35:36.448Z,14.70
2022-12-11T03:40:42.451Z,16.35
2022-12-11T03:45:46.206Z,14.60
2022-12-11T03:50:47.973Z,15.77
2022-12-11T03:55:51.109Z,15.25
2022-12-11T04:05:54.954Z,14.55
2022-12-11T04:16:15.165Z,17.50
2022-12-11T04:21:39.516Z,16.67
2022-12-11T04:26:42.308Z,16.77
2022-12-11T04:31:43.002Z,15.77
2022-12-11T04:36:44.073Z,15.63
2022-12-11T04:41:44.875Z,17.50
2022-12-11T04:46:45.722Z,18.83
2022-12-11T04:51:46.503Z,18.12
2022-12-11T04:56:47.509Z,17.12
2022-12-11T05:01:48.484Z,16.55
2022-12-11T05:06:51.053Z,16.52
2022-12-11T05:11:53.035Z,16.77
2022-12-11T05:16:53.757Z,17.37
2022-12-11T05:21:54.528Z,18.00
2022-12-11T05:26:55.397Z,16.83
2022-12-11T05:31:56.214Z,16.62
2022-12-11T05:36:56.929Z,16.58
2022-12-11T05:41:57.766Z,16.65
2022-12-11T05:46:58.800Z,16.27
2022-12-11T05:51:59.596Z,16.77
2022-12-11T05:57:00.329Z,16.15
2022-12-11T06:02:01.455Z,17.02
2022-12-11T06:07:02.703Z,16.00
2022-12-11T06:12:03.844Z,16.85
2022-12-11T06:17:04.598Z,17.55
2022-12-11T06:22:05.374Z,15.68
2022-12-11T06:27:06.130Z,15.10
2022-12-11T06:32:07.075Z,15.90
2022-12-11T06:37:07.819Z,15.52
2022-12-11T06:42:08.856Z,17.02
2022-12-11T06:47:09.907Z,15.50
2022-12-11T06:52:15.025Z,15.23
2022-12-11T06:57:19.714Z,15.65
2022-12-11T07:02:20.631Z,15.95
2022-12-11T07:07:21.705Z,16.10
2022-12-11T07:12:22.701Z,16.05
2022-12-11T07:17:23.471Z,16.10
2022-12-11T07:22:24.201Z,14.50
2022-12-11T07:27:24.971Z,15.65
2022-12-11T07:32:25.861Z,16.30
2022-12-11T07:37:27.260Z,19.20
2022-12-11T07:42:28.094Z,16.35
2022-12-11T07:47:28.851Z,18.12
2022-12-11T07:52:29.591Z,15.43
2022-12-11T07:57:30.368Z,16.75
2022-12-11T08:02:36.778Z,17.05
2022-12-11T08:07:38.479Z,17.50
2022-12-11T08:12:39.315Z,17.45
2022-12-11T08:17:40.432Z,18.67
2022-12-11T08:22:41.250Z,17.23
2022-12-11T08:27:42.016Z,17.40
2022-12-11T08:32:42.768Z,16.48
2022-12-11T08:37:43.571Z,17.67
2022-12-11T08:42:44.427Z,18.20
2022-12-11T08:47:45.447Z,16.02
2022-12-11T08:52:46.359Z,16.05
2022-12-11T08:57:47.122Z,20.92
2022-12-11T09:02:47.956Z,19.45
2022-12-11T09:07:49.073Z,21.75
2022-12-11T09:12:50.250Z,20.60
2022-12-11T09:17:50.994Z,20.15
2022-12-11T09:22:51.869Z,16.85
2022-12-11T09:27:52.942Z,17.10
2022-12-11T09:32:53.694Z,18.85
2022-12-11T09:37:54.502Z,17.98
2022-12-11T09:43:02.527Z,18.08
2022-12-11T09:48:03.404Z,16.25
2022-12-11T09:53:16.826Z,18.70
2022-12-11T10:00:31.651Z,17.80
2022-12-11T10:14:05.949Z,18.05
2022-12-11T10:20:19.997Z,20.12
2022-12-11T10:26:11.888Z,18.62
2022-12-11T10:31:19.464Z,17.85
2022-12-11T10:36:26.700Z,20.30
2022-12-11T10:41:38.474Z,20.60
2022-12-11T10:46:39.280Z,18.98
2022-12-11T10:51:40.477Z,20.45
2022-12-11T10:56:46.562Z,19.85
2022-12-11T11:01:47.506Z,28.90
2022-12-11T11:06:49.119Z,38.92
2022-12-11T11:11:50.369Z,25.02
2022-12-11T11:16:56.479Z,20.60
2022-12-11T11:22:02.304Z,21.08
2022-12-11T11:27:13.846Z,20.70
2022-12-11T11:32:38.020Z,27.37
2022-12-11T11:37:42.401Z,32.13
2022-12-11T11:42:55.869Z,22.75
2022-12-11T11:48:26.506Z,23.05
2022-12-11T11:53:36.571Z,23.35
2022-12-11T11:58:47.351Z,22.85
2022-12-11T12:03:49.021Z,23.30
2022-12-11T12:10:51.623Z,24.73
2022-12-11T12:15:58.360Z,20.58
2022-12-11T12:21:11.709Z,23.48
2022-12-11T12:26:35.065Z,25.02
2022-12-11T12:31:59.669Z,30.88
2022-12-11T12:38:32.181Z,22.37
2022-12-11T12:46:18.826Z,20.62
2022-12-11T12:51:20.690Z,21.48
2022-12-11T12:56:22.736Z,22.75
2022-12-11T13:01:25.842Z,22.27
2022-12-11T13:06:37.338Z,22.45
2022-12-11T13:11:38.216Z,24.35
2022-12-11T13:16:47.348Z,23.05
2022-12-11T13:22:40.268Z,33.67
2022-12-11T13:27:42.921Z,24.20
2022-12-11T13:33:07.225Z,24.73
2022-12-11T13:38:21.998Z,24.67
2022-12-11T13:43:27.062Z,23.98
2022-12-11T13:52:00.981Z,24.08
2022-12-11T13:57:29.553Z,23.23
2022-12-11T14:02:41.592Z,21.83
2022-12-11T14:07:47.847Z,22.62
2022-12-11T14:14:26.514Z,29.10
2022-12-11T14:19:28.430Z,33.67
2022-12-11T14:24:30.872Z,25.33
2022-12-11T14:29:32.892Z,25.83
2022-12-11T14:34:43.559Z,22.90
2022-12-11T14:39:54.279Z,25.27
2022-12-11T14:45:07.047Z,29.02
2022-12-11T14:50:20.628Z,26.40
2022-12-11T14:55:27.807Z,27.98
2022-12-11T15:00:35.250Z,26.15
2022-12-11T15:05:52.147Z,22.50
2022-12-11T15:11:11.963Z,23.95
2022-12-11T15:16:14.122Z,23.25
2022-12-11T15:21:15.946Z,23.62
2022-12-11T15:26:17.552Z,22.85
2022-12-11T15:31:28.258Z,22.62
2022-12-11T15:36:36.172Z,23.73
2022-12-11T15:41:37.123Z,24.58
2022-12-11T15:46:38.030Z,25.42
2022-12-11T15:51:42.883Z,25.85
2022-12-11T15:56:44.285Z,25.00
2022-12-11T16:01:45.185Z,25.00
2022-12-11T16:06:46.507Z,27.50
2022-12-11T16:11:47.903Z,23.87
2022-12-11T16:16:48.668Z,23.55
2022-12-11T16:21:49.378Z,22.08
2022-12-11T16:26:50.811Z,29.17
2022-12-11T16:31:51.930Z,43.15
2022-12-11T16:36:54.694Z,29.25
2022-12-11T16:41:55.409Z,55.47
2022-12-11T16:46:57.601Z,28.95
2022-12-11T16:51:58.525Z,26.50
2022-12-11T16:56:59.294Z,25.62
2022-12-11T17:02:00.071Z,27.48
2022-12-11T17:07:01.331Z,31.45
2022-12-11T17:12:02.478Z,25.98
2022-12-11T17:17:03.285Z,23.87
2022-12-11T17:22:04.262Z,24.48
2022-12-11T17:27:05.025Z,24.25
2022-12-11T17:32:06.146Z,25.02
2022-12-11T17:37:07.657Z,27.33
2022-12-11T17:42:08.424Z,28.90
2022-12-11T17:47:11.457Z,27.87
2022-12-11T17:52:12.440Z,28.30
2022-12-11T17:57:13.239Z,26.15
2022-12-11T18:02:14.072Z,27.00
2022-12-11T18:07:15.460Z,27.45
2022-12-11T18:12:16.227Z,25.67
2022-12-11T18:17:18.188Z,26.92
2022-12-11T18:22:19.085Z,28.50
2022-12-11T18:27:19.858Z,28.48
2022-12-11T18:32:20.576Z,26.58
2022-12-11T18:37:27.572Z,26.87
2022-12-11T18:42:33.410Z,26.42
2022-12-11T18:47:34.967Z,28.05
2022-12-11T18:52:35.698Z,26.58
2022-12-11T18:57:36.487Z,26.52
2022-12-11T19:02:37.226Z,27.23
2022-12-11T19:07:38.176Z,27.60
2022-12-11T19:12:39.245Z,25.67
2022-12-11T19:17:42.120Z,25.92
2022-12-11T19:22:42.835Z,27.95
2022-12-11T19:27:46.056Z,28.10
2022-12-11T19:37:48.037Z,26.55
2022-12-11T19:42:48.784Z,29.35
2022-12-11T19:47:49.702Z,28.02
2022-12-11T19:52:50.450Z,26.42
2022-12-11T19:57:51.216Z,25.77
2022-12-11T20:02:51.934Z,26.27
2022-12-11T20:07:52.894Z,26.48
2022-12-11T20:12:58.326Z,29.02
2022-12-11T20:18:00.410Z,29.08
2022-12-11T20:23:02.677Z,30.45
2022-12-11T20:28:03.696Z,28.80
2022-12-11T20:33:04.479Z,29.15
2022-12-11T20:38:05.552Z,27.08
2022-12-11T20:43:06.594Z,30.35
2022-12-11T20:48:08.334Z,28.52
2022-12-11T20:53:09.270Z,28.02
2022-12-11T20:58:10.067Z,28.35
2022-12-11T21:03:10.806Z,29.50
2022-12-11T21:08:12.310Z,27.83
2022-12-11T21:13:13.173Z,29.10
2022-12-11T21:18:14.302Z,29.05
2022-12-11T21:23:15.035Z,28.17
2022-12-11T21:28:15.822Z,27.20
2022-12-11T21:33:16.839Z,28.73
2022-12-11T21:38:18.022Z,28.45
2022-12-11T21:43:19.351Z,28.25
2022-12-11T21:48:20.235Z,28.73
2022-12-11T21:53:20.981Z,28.73
2022-12-11T21:58:21.766Z,26.85
2022-12-11T22:03:22.496Z,27.77
2022-12-11T22:08:23.479Z,29.73
2022-12-11T22:13:27.654Z,29.95
2022-12-11T22:18:29.161Z,31.73
2022-12-11T22:23:30.476Z,29.45
2022-12-11T22:28:31.279Z,29.77
2022-12-11T22:33:32.023Z,31.33
2022-12-11T22:38:33.879Z,29.98
2022-12-11T22:43:34.623Z,31.62
2022-12-11T22:48:35.775Z,28.70
2022-12-11T22:53:36.690Z,28.52
2022-12-11T22:58:38.149Z,27.92
2022-12-11T23:03:39.201Z,30.17
2022-12-11T23:08:41.603Z,27.95
2022-12-11T23:13:42.960Z,33.70
2022-12-11T23:18:44.055Z,30.00
2022-12-11T23:23:45.565Z,29.95
2022-12-11T23:28:46.827Z,28.67
2022-12-11T23:33:47.806Z,26.90
2022-12-11T23:38:54.298Z,26.87
2022-12-11T23:43:55.746Z,28.17
2022-12-11T23:48:56.838Z,28.17
2022-12-11T23:53:57.606Z,35.63
2022-12-11T23:58:58.743Z,28.25
